createdAt,value
2022-08-03T00:01:30.190Z,23.04
2022-08-03T00:04:34.186Z,22.81
2022-08-03T00:07:36.000Z,22.59
2022-08-03T00:10:38.136Z,23.11
2022-08-03T00:13:39.781Z,22.72
2022-08-03T00:16:41.226Z,22.49
2022-08-03T00:19:42.689Z,22.92
2022-08-03T00:22:44.128Z,23.23
2022-08-03T00:25:45.586Z,22.96
2022-08-03T00:28:47.444Z,22.69
2022-08-03T00:31:52.903Z,22.74
2022-08-03T00:35:05.689Z,22.18
2022-08-03T00:38:10.358Z,22.72
2022-08-03T00:41:11.841Z,22.90
2022-08-03T00:44:17.151Z,22.96
2022-08-03T00:47:18.616Z,22.85
2022-08-03T00:50:25.473Z,22.51
2022-08-03T00:53:27.643Z,22.63
2022-08-03T00:56:29.140Z,22.78
2022-08-03T00:59:30.810Z,22.97
2022-08-03T01:02:32.408Z,22.92
2022-08-03T01:05:45.231Z,22.52
2022-08-03T01:08:53.617Z,21.94
2022-08-03T01:12:03.910Z,21.56
2022-08-03T01:15:29.299Z,21.53
2022-08-03T01:18:49.413Z,22.17
2022-08-03T01:22:18.012Z,21.83
2022-08-03T01:25:36.371Z,22.42
2022-08-03T01:28:45.207Z,21.74
2022-08-03T01:33:02.783Z,21.74
2022-08-03T01:35:35.466Z,21.40
2022-08-03T01:38:54.050Z,21.37
2022-08-03T01:42:02.253Z,22.00
2022-08-03T01:45:05.380Z,22.25
2022-08-03T01:48:08.007Z,22.31
2022-08-03T01:51:10.987Z,22.23
2022-08-03T01:54:13.526Z,22.18
2022-08-03T01:57:16.452Z,22.21
2022-08-03T02:00:19.201Z,21.65
2022-08-03T02:03:24.314Z,21.91
2022-08-03T02:07:01.911Z,21.86
2022-08-03T02:09:52.383Z,21.87
2022-08-03T02:12:54.672Z,22.09
2022-08-03T02:15:58.047Z,22.00
2022-08-03T02:19:01.963Z,22.02
2022-08-03T02:22:05.379Z,21.97
2022-08-03T02:25:09.056Z,21.46
2022-08-03T02:28:13.479Z,21.48
2022-08-03T02:31:21.932Z,21.67
2022-08-03T02:34:29.332Z,21.74
2022-08-03T02:37:37.562Z,21.74
2022-08-03T02:40:46.208Z,21.85
2022-08-03T02:44:05.668Z,21.92
2022-08-03T02:47:11.692Z,21.98
2022-08-03T02:50:16.657Z,21.85
2022-08-03T02:53:19.798Z,21.73
2022-08-03T02:56:23.664Z,21.88
2022-08-03T02:59:26.985Z,21.31
2022-08-03T03:02:29.655Z,20.87
2022-08-03T03:05:52.835Z,21.52
2022-08-03T03:08:59.304Z,21.31
2022-08-03T03:12:02.997Z,21.14
2022-08-03T03:15:08.166Z,21.31
2022-08-03T03:18:10.696Z,21.62
2022-08-03T03:21:14.292Z,21.68
2022-08-03T03:24:16.631Z,21.57
2022-08-03T03:27:18.639Z,21.56
2022-08-03T03:30:20.167Z,21.54
2022-08-03T03:33:22.859Z,21.28
2022-08-03T03:36:24.339Z,20.82
2022-08-03T03:39:25.850Z,20.73
2022-08-03T03:42:27.364Z,21.15
2022-08-03T03:45:30.932Z,21.36
2022-08-03T03:48:32.743Z,21.44
2022-08-03T03:51:34.174Z,20.78
2022-08-03T03:54:45.488Z,20.77
2022-08-03T03:57:47.006Z,21.06
2022-08-03T04:00:48.687Z,20.93
2022-08-03T04:03:50.234Z,20.72
2022-08-03T04:07:10.528Z,20.44
2022-08-03T04:10:44.860Z,20.78
2022-08-03T04:14:04.805Z,21.18
2022-08-03T04:17:09.473Z,21.04
2022-08-03T04:20:13.329Z,20.75
2022-08-03T04:23:16.917Z,20.34
2022-08-03T04:26:21.616Z,20.84
2022-08-03T04:29:25.964Z,21.16
2022-08-03T04:32:29.706Z,20.89
2022-08-03T04:36:01.376Z,20.43
2022-08-03T04:39:04.345Z,20.19
2022-08-03T04:42:09.253Z,20.30
2022-08-03T04:45:12.992Z,20.36
2022-08-03T04:48:15.508Z,20.48
2022-08-03T04:51:17.259Z,20.50
2022-08-03T04:54:18.747Z,20.57
2022-08-03T04:57:22.739Z,20.83
2022-08-03T05:00:25.917Z,20.84
2022-08-03T05:03:27.388Z,20.82
2022-08-03T05:06:28.892Z,21.02
2022-08-03T05:09:52.868Z,21.14
2022-08-03T05:12:52.240Z,21.20
2022-08-03T05:15:53.793Z,21.29
2022-08-03T05:18:55.220Z,21.31
2022-08-03T05:21:56.658Z,21.34
2022-08-03T05:24:58.430Z,21.37
2022-08-03T05:27:59.951Z,21.45
2022-08-03T05:31:02.071Z,21.50
2022-08-03T05:34:03.519Z,21.70
2022-08-03T05:37:05.087Z,21.84
2022-08-03T05:40:07.180Z,22.02
2022-08-03T05:43:08.782Z,22.09
2022-08-03T05:46:12.820Z,22.13
2022-08-03T05:49:14.591Z,22.13
2022-08-03T05:52:16.178Z,22.12
2022-08-03T05:55:19.378Z,22.16
2022-08-03T05:58:20.824Z,22.40
2022-08-03T06:01:22.520Z,22.38
2022-08-03T06:04:24.053Z,22.37
2022-08-03T06:07:25.546Z,22.32
2022-08-03T06:10:36.259Z,22.23
2022-08-03T06:13:40.032Z,22.34
2022-08-03T06:16:41.521Z,22.58
2022-08-03T06:19:43.134Z,22.72
2022-08-03T06:22:51.049Z,22.69
2022-08-03T06:26:02.490Z,22.44
2022-08-03T06:29:04.094Z,22.51
2022-08-03T06:32:05.960Z,22.50
2022-08-03T06:35:08.122Z,22.74
2022-08-03T06:38:09.593Z,22.65
2022-08-03T06:41:11.039Z,22.91
2022-08-03T06:44:13.388Z,23.02
2022-08-03T06:47:14.859Z,23.08
2022-08-03T06:50:21.717Z,22.96
2022-08-03T06:53:25.981Z,23.14
2022-08-03T06:56:27.593Z,23.35
2022-08-03T07:00:07.495Z,23.47
2022-08-03T07:02:53.642Z,23.37
2022-08-03T07:05:59.415Z,23.58
2022-08-03T07:09:00.959Z,23.73
2022-08-03T07:12:04.432Z,23.89
2022-08-03T07:15:06.825Z,23.91
2022-08-03T07:18:08.348Z,24.08
2022-08-03T07:21:10.999Z,24.11
2022-08-03T07:24:12.466Z,24.24
2022-08-03T07:27:16.497Z,24.39
2022-08-03T07:30:18.088Z,24.42
2022-08-03T07:33:19.998Z,24.35
2022-08-03T07:36:21.522Z,24.69
2022-08-03T07:39:23.096Z,24.84
2022-08-03T07:42:24.869Z,24.94
2022-08-03T07:45:26.770Z,25.19
2022-08-03T07:48:28.475Z,25.36
2022-08-03T07:51:30.011Z,25.55
2022-08-03T07:54:32.016Z,25.46
2022-08-03T07:57:34.956Z,25.49
2022-08-03T08:00:36.878Z,25.92
2022-08-03T08:03:41.156Z,26.10
2022-08-03T08:06:54.713Z,26.17
2022-08-03T08:09:57.209Z,26.28
2022-08-03T08:12:58.920Z,26.76
2022-08-03T08:16:00.428Z,26.80
2022-08-03T08:19:02.372Z,26.82
2022-08-03T08:22:03.893Z,27.00
2022-08-03T08:25:07.493Z,27.44
2022-08-03T08:28:31.871Z,27.73
2022-08-03T08:31:30.564Z,27.78
2022-08-03T08:34:32.375Z,28.25
2022-08-03T08:37:34.677Z,28.61
2022-08-03T08:40:36.225Z,28.65
2022-08-03T08:43:37.788Z,28.92
2022-08-03T08:46:39.730Z,28.47
2022-08-03T08:49:53.420Z,28.71
2022-08-03T08:53:04.695Z,29.45
2022-08-03T08:56:10.366Z,29.33
2022-08-03T08:59:12.214Z,29.80
2022-08-03T09:02:13.809Z,29.95
2022-08-03T09:05:16.540Z,29.67
2022-08-03T09:08:18.333Z,29.75
2022-08-03T09:11:51.644Z,29.89
2022-08-03T09:15:07.600Z,30.19
2022-08-03T09:18:09.411Z,30.25
2022-08-03T09:21:32.077Z,30.27
2022-08-03T09:24:41.167Z,30.48
2022-08-03T09:27:44.554Z,30.98
2022-08-03T09:30:58.518Z,30.24
2022-08-03T09:34:07.816Z,31.05
2022-08-03T09:37:15.394Z,30.67
2022-08-03T09:40:35.250Z,30.81
2022-08-03T09:43:46.733Z,31.32
2022-08-03T09:46:49.987Z,31.09
2022-08-03T09:50:04.409Z,30.95
2022-08-03T09:53:06.040Z,30.75
2022-08-03T09:56:33.467Z,30.96
2022-08-03T09:59:30.697Z,31.58
2022-08-03T10:02:32.440Z,31.41
2022-08-03T10:05:33.969Z,31.83
2022-08-03T10:08:35.478Z,32.22
2022-08-03T10:11:41.678Z,32.25
2022-08-03T10:14:45.667Z,32.39
2022-08-03T10:17:47.353Z,32.73
2022-08-03T10:20:53.514Z,32.93
2022-08-03T10:23:56.318Z,32.77
2022-08-03T10:27:04.421Z,33.53
2022-08-03T10:30:11.277Z,33.23
2022-08-03T10:33:51.013Z,33.34
2022-08-03T10:36:49.031Z,33.92
2022-08-03T10:39:54.019Z,33.24
2022-08-03T10:42:59.298Z,33.57
2022-08-03T10:46:03.219Z,34.05
2022-08-03T10:49:06.378Z,34.08
2022-08-03T10:52:31.682Z,33.91
2022-08-03T10:55:49.907Z,33.99
2022-08-03T10:58:57.871Z,34.03
2022-08-03T11:02:00.613Z,34.57
2022-08-03T11:05:27.036Z,34.70
2022-08-03T11:08:29.973Z,34.96
2022-08-03T11:11:31.609Z,35.16
2022-08-03T11:15:06.361Z,34.56
2022-08-03T11:18:13.160Z,34.76
2022-08-03T11:21:14.682Z,35.01
2022-08-03T11:24:41.024Z,34.55
2022-08-03T11:27:42.667Z,35.20
2022-08-03T11:30:44.164Z,35.01
2022-08-03T11:34:04.465Z,35.80
2022-08-03T11:37:23.089Z,35.62
2022-08-03T11:40:40.421Z,35.83
2022-08-03T11:43:45.275Z,35.52
2022-08-03T11:46:46.931Z,35.68
2022-08-03T11:49:49.983Z,35.85
2022-08-03T11:52:51.601Z,35.71
2022-08-03T11:55:53.941Z,35.85
2022-08-03T11:59:19.339Z,35.67
2022-08-03T12:02:19.027Z,35.36
2022-08-03T12:05:20.658Z,35.42
2022-08-03T12:08:28.330Z,35.77
2022-08-03T12:11:30.715Z,35.62
2022-08-03T12:14:48.539Z,35.68
2022-08-03T12:17:57.589Z,35.50
2022-08-03T12:21:10.887Z,35.49
2022-08-03T12:24:12.494Z,35.95
2022-08-03T12:27:24.551Z,35.69
2022-08-03T12:30:26.262Z,35.03
2022-08-03T12:33:28.407Z,35.51
2022-08-03T12:36:32.169Z,35.25
2022-08-03T12:39:33.690Z,35.73
2022-08-03T12:42:37.559Z,35.79
2022-08-03T12:45:39.468Z,36.08
2022-08-03T12:49:03.579Z,35.75
2022-08-03T12:52:07.601Z,35.89
2022-08-03T12:55:20.658Z,35.71
2022-08-03T12:58:36.105Z,35.55
2022-08-03T13:01:37.799Z,35.05
2022-08-03T13:04:43.684Z,34.70
2022-08-03T13:07:46.328Z,34.83
2022-08-03T13:10:48.653Z,34.50
2022-08-03T13:13:51.787Z,34.80
2022-08-03T13:16:53.339Z,34.51
2022-08-03T13:19:54.892Z,33.96
2022-08-03T13:23:00.599Z,34.29
2022-08-03T13:26:02.856Z,34.02
2022-08-03T13:29:04.351Z,33.95
2022-08-03T13:32:06.907Z,33.82
2022-08-03T13:35:09.597Z,33.82
2022-08-03T13:38:11.277Z,34.04
2022-08-03T13:41:15.520Z,34.19
2022-08-03T13:44:29.211Z,34.05
2022-08-03T13:47:31.440Z,33.99
2022-08-03T13:50:33.249Z,34.20
2022-08-03T13:53:34.717Z,34.24
2022-08-03T13:56:36.160Z,33.84
2022-08-03T13:59:38.005Z,34.22
2022-08-03T14:02:39.524Z,34.23
2022-08-03T14:05:42.490Z,34.08
2022-08-03T14:08:44.738Z,34.07
2022-08-03T14:12:07.495Z,34.45
2022-08-03T14:15:10.054Z,34.44
2022-08-03T14:18:15.869Z,34.31
2022-08-03T14:21:29.907Z,34.22
2022-08-03T14:24:31.538Z,34.38
2022-08-03T14:27:32.978Z,34.23
2022-08-03T14:30:35.008Z,34.25
2022-08-03T14:33:36.482Z,34.32
2022-08-03T14:36:38.047Z,34.26
2022-08-03T14:43:02.349Z,34.34
2022-08-03T14:46:03.887Z,34.29
2022-08-03T14:50:34.482Z,34.49
2022-08-03T14:52:26.881Z,34.52
2022-08-03T14:55:28.808Z,34.37
2022-08-03T14:58:40.480Z,34.45
2022-08-03T15:02:04.298Z,34.62
2022-08-03T15:05:04.086Z,34.31
2022-08-03T15:08:09.227Z,34.49
2022-08-03T15:11:11.107Z,34.21
2022-08-03T15:14:13.555Z,34.41
2022-08-03T15:17:16.424Z,34.58
2022-08-03T15:20:28.745Z,34.38
2022-08-03T15:23:38.037Z,34.61
2022-08-03T15:26:41.721Z,34.63
2022-08-03T15:30:07.595Z,34.69
2022-08-03T15:33:05.411Z,34.59
2022-08-03T15:36:07.364Z,34.65
2022-08-03T15:39:08.849Z,34.67
2022-08-03T15:42:10.298Z,34.60
2022-08-03T15:45:11.812Z,34.57
2022-08-03T15:48:14.525Z,34.23
2022-08-03T15:51:16.078Z,34.30
2022-08-03T15:54:17.570Z,34.55
2022-08-03T15:57:19.426Z,33.92
2022-08-03T16:00:21.199Z,34.34
2022-08-03T16:03:35.446Z,34.57
2022-08-03T16:06:37.166Z,34.21
2022-08-03T16:09:42.388Z,34.30
2022-08-03T16:12:45.596Z,34.53
2022-08-03T16:15:47.683Z,34.30
2022-08-03T16:18:49.315Z,34.30
2022-08-03T16:21:50.831Z,34.31
2022-08-03T16:24:54.049Z,34.31
2022-08-03T16:27:56.898Z,34.36
2022-08-03T16:31:09.124Z,34.52
2022-08-03T16:34:10.617Z,34.42
2022-08-03T16:37:37.182Z,34.56
2022-08-03T16:40:35.038Z,34.22
2022-08-03T16:43:37.722Z,34.07
2022-08-03T16:46:42.757Z,34.51
2022-08-03T16:49:54.467Z,34.62
2022-08-03T16:52:57.819Z,34.49
2022-08-03T16:56:00.011Z,34.33
2022-08-03T16:59:01.641Z,34.43
2022-08-03T17:02:09.698Z,34.36
2022-08-03T17:05:12.345Z,34.49
2022-08-03T17:08:14.025Z,34.19
2022-08-03T17:11:15.639Z,34.20
2022-08-03T17:14:22.077Z,33.90
2022-08-03T17:17:47.627Z,33.56
2022-08-03T17:20:58.154Z,33.80
2022-08-03T17:24:19.907Z,34.04
2022-08-03T17:28:51.235Z,33.87
2022-08-03T17:31:23.448Z,33.55
2022-08-03T17:34:30.522Z,33.62
2022-08-03T17:37:57.894Z,33.57
2022-08-03T17:40:56.352Z,33.56
2022-08-03T17:44:14.887Z,33.20
2022-08-03T17:47:19.230Z,33.29
2022-08-03T17:50:27.996Z,33.12
2022-08-03T17:53:37.692Z,33.05
2022-08-03T17:57:22.638Z,33.05
2022-08-03T18:00:45.282Z,32.94
2022-08-03T18:03:57.782Z,32.93
2022-08-03T18:07:11.662Z,32.76
2022-08-03T18:10:23.324Z,32.63
2022-08-03T18:16:58.506Z,32.44
2022-08-03T18:20:09.929Z,32.29
2022-08-03T18:23:25.105Z,32.20
2022-08-03T18:26:38.645Z,32.13
2022-08-03T18:29:41.266Z,32.01
2022-08-03T18:32:43.749Z,32.05
2022-08-03T18:36:03.418Z,32.08
2022-08-03T18:39:06.220Z,31.88
2022-08-03T18:42:07.899Z,31.64
2022-08-03T18:45:55.819Z,31.58
2022-08-03T18:48:55.189Z,31.40
2022-08-03T18:52:04.802Z,31.35
2022-08-03T18:56:01.344Z,31.33
2022-08-03T18:59:10.418Z,31.17
2022-08-03T19:02:36.758Z,31.07
2022-08-03T19:05:57.749Z,30.86
2022-08-03T19:09:09.493Z,30.83
2022-08-03T19:12:27.320Z,31.06
2022-08-03T19:15:51.209Z,31.12
2022-08-03T19:18:54.996Z,31.03
2022-08-03T19:21:57.918Z,31.03
2022-08-03T19:25:04.104Z,30.86
2022-08-03T19:28:07.509Z,30.79
2022-08-03T19:31:11.529Z,30.56
2022-08-03T19:34:20.087Z,30.41
2022-08-03T19:37:27.494Z,30.39
2022-08-03T19:40:42.154Z,30.30
2022-08-03T19:43:53.701Z,29.88
2022-08-03T19:47:11.617Z,29.61
2022-08-03T19:50:20.441Z,29.76
2022-08-03T19:53:23.865Z,29.76
2022-08-03T19:56:46.197Z,29.86
2022-08-03T19:59:50.778Z,29.39
2022-08-03T20:02:52.592Z,28.95
2022-08-03T20:05:55.093Z,28.79
2022-08-03T20:08:57.554Z,28.61
2022-08-03T20:12:00.428Z,28.57
2022-08-03T20:15:03.283Z,28.55
2022-08-03T20:18:04.746Z,28.78
2022-08-03T20:21:15.298Z,28.49
2022-08-03T20:24:23.827Z,28.44
2022-08-03T20:27:30.314Z,28.43
2022-08-03T20:30:32.063Z,28.15
2022-08-03T20:33:46.562Z,28.06
2022-08-03T20:36:55.519Z,27.90
2022-08-03T20:39:57.054Z,27.91
2022-08-03T20:42:59.724Z,27.94
2022-08-03T20:46:30.905Z,27.82
2022-08-03T20:49:25.820Z,28.19
2022-08-03T20:52:31.285Z,28.56
2022-08-03T20:55:48.176Z,28.24
2022-08-03T20:58:55.104Z,27.76
2022-08-03T21:01:56.637Z,27.54
2022-08-03T21:05:08.524Z,27.64
2022-08-03T21:08:12.147Z,27.59
2022-08-03T21:11:18.976Z,27.42
2022-08-03T21:12:57.247Z,32.55
2022-08-03T21:14:25.148Z,27.38
2022-08-03T21:17:40.639Z,28.05
2022-08-03T21:20:44.314Z,27.94
2022-08-03T21:23:50.087Z,27.33
2022-08-03T21:26:55.009Z,27.27
2022-08-03T21:30:00.846Z,27.33
2022-08-03T21:33:06.498Z,27.43
2022-08-03T21:36:08.562Z,27.22
2022-08-03T21:39:10.652Z,27.27
2022-08-03T21:42:13.253Z,27.13
2022-08-03T21:45:17.329Z,27.10
2022-08-03T21:48:19.912Z,26.97
2022-08-03T21:51:25.263Z,26.82
2022-08-03T21:54:36.910Z,26.99
2022-08-03T21:57:40.863Z,27.16
2022-08-03T22:00:43.280Z,26.90
2022-08-03T22:03:53.079Z,27.02
2022-08-03T22:06:55.735Z,26.79
2022-08-03T22:09:59.063Z,26.73
2022-08-03T22:13:00.614Z,26.84
2022-08-03T22:16:02.388Z,27.27
2022-08-03T22:19:04.008Z,27.48
2022-08-03T22:22:09.230Z,27.47
2022-08-03T22:25:13.816Z,27.51
2022-08-03T22:28:15.777Z,26.96
2022-08-03T22:31:57.762Z,26.79
2022-08-03T22:34:42.872Z,27.13
2022-08-03T22:37:46.902Z,27.27
2022-08-03T22:40:51.057Z,27.18
2022-08-03T22:43:53.120Z,26.98
2022-08-03T22:46:55.951Z,27.16
2022-08-03T22:50:32.044Z,27.26
2022-08-03T22:53:22.002Z,27.24
2022-08-03T22:56:23.834Z,27.13
2022-08-03T22:59:40.195Z,26.88
2022-08-03T23:02:46.863Z,26.96
2022-08-03T23:06:01.070Z,26.86
2022-08-03T23:09:06.852Z,26.80
2022-08-03T23:12:08.677Z,26.70
2022-08-03T23:15:12.947Z,26.82
2022-08-03T23:18:15.433Z,26.90
2022-08-03T23:21:18.053Z,26.71
2022-08-03T23:24:39.828Z,26.75
2022-08-03T23:27:43.508Z,26.91
2022-08-03T23:30:45.625Z,26.73
2022-08-03T23:34:16.528Z,26.80
2022-08-03T23:37:20.136Z,26.62
2022-08-03T23:40:30.838Z,26.47
2022-08-03T23:43:45.094Z,26.15
2022-08-03T23:46:54.584Z,26.32
2022-08-03T23:49:56.044Z,26.24
2022-08-03T23:53:01.063Z,26.31
2022-08-03T23:56:22.140Z,26.33
2022-08-03T23:59:30.501Z,26.39
